Time;durP1;ratioP1;P1;durP2;ratioP2;P2;SDS_P1;SDS_P2;PMS_P1;PMS_P2;Temp;Humidity;BMP_temperature;BMP_pressure;BME280_temperature;BME280_humidity;BME280_pressure;Samples;Min_cycle;Max_cycle;Signal;HPM_P1;HPM_P2
2022/05/22 00:00:42;;;;;;;2.67;1.33;;;13.20;98.00;;;;;;5050298;28;20472;-68
2022/05/22 00:03:09;;;;;;;1.40;1.30;;;13.10;98.00;;;;;;5051006;28;20455;-68
2022/05/22 00:05:36;;;;;;;1.90;1.60;;;13.10;98.00;;;;;;5050878;28;20549;-68
2022/05/22 00:08:05;;;;;;;1.70;1.20;;;13.10;98.00;;;;;;5051402;28;21034;-68
2022/05/22 00:10:33;;;;;;;1.30;1.23;;;13.00;98.00;;;;;;5051053;28;20502;-68
2022/05/22 00:13:01;;;;;;;1.60;1.33;;;12.90;98.00;;;;;;5053343;28;20451;-68
2022/05/22 00:15:28;;;;;;;2.60;1.80;;;12.80;98.00;;;;;;5054000;28;20455;-68
2022/05/22 00:17:55;;;;;;;1.67;1.23;;;12.70;98.00;;;;;;5055021;28;20500;-68
2022/05/22 00:20:22;;;;;;;1.50;1.47;;;12.60;98.00;;;;;;5054924;28;20446;-68
2022/05/22 00:22:50;;;;;;;1.30;1.20;;;12.60;98.00;;;;;;5054692;28;20459;-68
2022/05/22 00:25:18;;;;;;;1.53;1.23;;;12.50;98.00;;;;;;5054780;28;20821;-68
2022/05/22 00:27:45;;;;;;;1.30;1.10;;;12.50;98.00;;;;;;5054693;28;20459;-68
2022/05/22 00:30:14;;;;;;;2.07;1.50;;;12.50;98.00;;;;;;5054841;28;20456;-68
2022/05/22 00:32:42;;;;;;;1.97;1.30;;;12.60;98.00;;;;;;5054440;28;20546;-68
2022/05/22 00:35:10;;;;;;;1.53;1.30;;;12.70;98.00;;;;;;5054681;28;20871;-68
2022/05/22 00:37:37;;;;;;;1.40;1.23;;;12.60;98.00;;;;;;5052986;28;20451;-68
2022/05/22 00:40:05;;;;;;;1.60;1.30;;;12.70;98.00;;;;;;5053293;28;20461;-68
2022/05/22 00:42:34;;;;;;;2.00;1.50;;;12.50;98.00;;;;;;5053258;28;20857;-68
2022/05/22 00:45:01;;;;;;;2.67;1.67;;;12.40;98.00;;;;;;5054355;28;20481;-68
2022/05/22 00:47:28;;;;;;;1.67;1.10;;;12.40;98.00;;;;;;5053835;28;20525;-68
2022/05/22 00:50:00;;;;;;;1.67;1.30;;;12.30;98.00;;;;;;5054296;28;20461;-68
2022/05/22 00:52:35;;;;;;;2.17;1.70;;;12.40;98.00;;;;;;5053020;28;20470;-68
2022/05/22 00:55:06;;;;;;;2.17;1.40;;;12.60;98.00;;;;;;5054196;28;20469;-68
2022/05/22 00:57:39;;;;;;;2.50;1.63;;;12.70;98.00;;;;;;5054176;28;20548;-68
2022/05/22 01:00:09;;;;;;;1.70;1.30;;;12.80;98.00;;;;;;5054527;28;20470;-68
2022/05/22 01:05:17;;;;;;;2.60;1.97;;;12.30;98.00;;;;;;5053689;28;20488;-68
2022/05/22 01:07:44;;;;;;;1.20;1.20;;;12.20;98.00;;;;;;5053928;28;20454;-68
2022/05/22 01:10:14;;;;;;;1.50;1.33;;;12.30;98.00;;;;;;5054203;28;20489;-68
2022/05/22 01:12:44;;;;;;;3.00;1.57;;;12.20;98.00;;;;;;5054001;28;20456;-68
2022/05/22 01:15:14;;;;;;;1.60;1.20;;;12.10;98.00;;;;;;5054263;28;20454;-67
2022/05/22 01:17:43;;;;;;;1.80;1.50;;;12.00;98.00;;;;;;5052571;28;20985;-67
2022/05/22 01:20:19;;;;;;;2.13;1.40;;;11.90;98.00;;;;;;5053894;28;20869;-68
2022/05/22 01:22:48;;;;;;;1.37;1.37;;;11.80;98.00;;;;;;5053512;28;20497;-68
2022/05/22 01:25:15;;;;;;;1.80;1.60;;;11.80;98.00;;;;;;5051334;28;20700;-68
2022/05/22 01:27:42;;;;;;;1.50;1.20;;;11.90;98.00;;;;;;5052215;28;20459;-68
2022/05/22 01:30:14;;;;;;;1.40;1.20;;;11.80;98.00;;;;;;5053532;28;20780;-68
2022/05/22 01:32:44;;;;;;;1.40;1.30;;;11.90;98.00;;;;;;5053430;28;20899;-67
2022/05/22 01:35:13;;;;;;;2.77;1.90;;;11.90;98.00;;;;;;5053322;28;20540;-68
2022/05/22 01:37:40;;;;;;;1.80;1.33;;;12.10;98.00;;;;;;5053266;28;20769;-68
2022/05/22 01:40:10;;;;;;;1.40;1.40;;;12.10;98.00;;;;;;5053309;28;20483;-68
2022/05/22 01:42:38;;;;;;;2.47;1.60;;;12.10;98.00;;;;;;5053323;28;20455;-67
2022/05/22 01:45:07;;;;;;;2.00;1.73;;;12.20;98.00;;;;;;5053079;28;20492;-67
2022/05/22 01:47:41;;;;;;;1.57;1.30;;;12.30;98.00;;;;;;5051826;28;21036;-68
2022/05/22 01:50:09;;;;;;;1.67;1.23;;;12.40;98.00;;;;;;5053116;28;20458;-68
2022/05/22 01:52:36;;;;;;;1.40;1.30;;;12.30;98.00;;;;;;5053076;28;20996;-68
2022/05/22 01:55:04;;;;;;;3.20;1.63;;;12.10;98.00;;;;;;5053120;28;20487;-67
2022/05/22 01:57:32;;;;;;;1.20;1.10;;;12.00;98.00;;;;;;5052916;28;20731;-67
2022/05/22 02:00:00;;;;;;;1.20;1.03;;;11.80;98.00;;;;;;5052945;28;20544;-68
2022/05/22 02:02:27;;;;;;;2.50;1.50;;;11.60;98.00;;;;;;5052510;28;21037;-67
2022/05/22 02:04:54;;;;;;;2.43;1.50;;;11.60;98.00;;;;;;5052796;28;20485;-68
2022/05/22 02:10:17;;;;;;;2.10;1.53;;;11.60;98.00;;;;;;4991337;28;20511;-68
2022/05/22 02:12:46;;;;;;;1.20;1.10;;;11.70;98.00;;;;;;5037941;28;20462;-68
2022/05/22 02:15:13;;;;;;;1.67;1.30;;;11.60;98.00;;;;;;5051733;28;20510;-68
2022/05/22 02:17:40;;;;;;;2.37;1.37;;;11.60;98.00;;;;;;5052935;28;20487;-68
2022/05/22 02:20:08;;;;;;;2.17;1.67;;;11.60;98.00;;;;;;5052713;28;20954;-68
2022/05/22 02:22:42;;;;;;;2.10;1.57;;;11.60;98.00;;;;;;5052404;28;20567;-67
2022/05/22 02:25:10;;;;;;;1.40;1.30;;;11.50;98.00;;;;;;5052357;28;21029;-68
2022/05/22 02:27:37;;;;;;;1.40;1.20;;;11.50;98.00;;;;;;5052228;28;20959;-67
2022/05/22 02:30:08;;;;;;;1.50;1.33;;;11.50;98.00;;;;;;5052488;28;20485;-68
2022/05/22 02:32:37;;;;;;;2.90;1.47;;;11.30;98.00;;;;;;5052211;28;20455;-67
2022/05/22 02:35:06;;;;;;;2.23;1.50;;;11.20;98.00;;;;;;5052241;28;20869;-67
2022/05/22 02:37:33;;;;;;;1.30;1.13;;;11.30;98.00;;;;;;5052135;28;20455;-67
2022/05/22 02:40:01;;;;;;;1.87;1.23;;;11.30;98.00;;;;;;5052381;28;20465;-67
2022/05/22 02:42:30;;;;;;;1.50;1.40;;;11.30;98.00;;;;;;5052099;28;20949;-68
2022/05/22 02:44:57;;;;;;;1.30;1.20;;;11.40;98.00;;;;;;5052007;28;20487;-68
2022/05/22 02:47:25;;;;;;;1.30;1.27;;;11.40;98.00;;;;;;5051947;28;20452;-67
2022/05/22 02:49:52;;;;;;;2.27;1.60;;;11.50;98.00;;;;;;5052043;28;20469;-68
2022/05/22 02:52:20;;;;;;;3.73;1.50;;;11.50;98.00;;;;;;5052058;28;20457;-68
2022/05/22 02:54:47;;;;;;;1.60;1.40;;;11.50;98.00;;;;;;5051973;28;20810;-67
2022/05/22 02:57:16;;;;;;;1.80;1.53;;;11.40;98.00;;;;;;5050794;28;20465;-67
2022/05/22 02:59:43;;;;;;;2.70;1.50;;;11.40;98.00;;;;;;5051892;28;20479;-67
2022/05/22 03:02:11;;;;;;;1.30;1.20;;;11.30;98.00;;;;;;5051751;28;20504;-67
2022/05/22 03:04:39;;;;;;;1.20;1.13;;;11.30;98.00;;;;;;5051668;28;20553;-67
2022/05/22 03:07:07;;;;;;;1.73;1.30;;;11.30;98.00;;;;;;5051769;28;20969;-68
2022/05/22 03:09:38;;;;;;;1.90;1.70;;;11.20;98.00;;;;;;5051779;28;20464;-67
2022/05/22 03:12:07;;;;;;;1.57;1.40;;;11.20;98.00;;;;;;5051654;28;20528;-67
2022/05/22 03:14:35;;;;;;;1.90;1.50;;;11.20;98.00;;;;;;5051831;28;20514;-67
2022/05/22 03:17:02;;;;;;;1.20;1.07;;;11.20;98.00;;;;;;5050302;28;20483;-67
2022/05/22 03:19:32;;;;;;;2.70;1.50;;;11.30;98.00;;;;;;5051701;28;20955;-68
2022/05/22 03:22:00;;;;;;;3.27;1.60;;;11.30;98.00;;;;;;5051426;28;20456;-67
2022/05/22 03:24:27;;;;;;;1.50;1.50;;;11.40;98.00;;;;;;5051807;28;20470;-67
2022/05/22 03:26:54;;;;;;;1.40;1.27;;;11.60;98.00;;;;;;5051316;28;20492;-67
2022/05/22 03:29:22;;;;;;;1.40;1.40;;;11.70;98.00;;;;;;5051308;28;20631;-67
2022/05/22 03:31:52;;;;;;;1.70;1.43;;;11.60;98.00;;;;;;5051428;28;20465;-67
2022/05/22 03:34:19;;;;;;;1.60;1.57;;;11.40;98.00;;;;;;5051530;28;20504;-67
2022/05/22 03:36:46;;;;;;;1.87;1.43;;;11.20;98.00;;;;;;5242217;22;20976;-68
2022/05/22 03:39:14;;;;;;;1.30;1.03;;;11.10;98.00;;;;;;5031722;28;20460;-67
2022/05/22 03:41:41;;;;;;;1.60;1.40;;;11.20;98.00;;;;;;5031245;28;20461;-67
2022/05/22 03:44:09;;;;;;;1.60;1.40;;;11.40;98.00;;;;;;5031138;28;20501;-67
2022/05/22 03:46:36;;;;;;;2.07;1.30;;;11.40;98.00;;;;;;5030802;28;20638;-67
2022/05/22 03:49:04;;;;;;;1.97;1.77;;;11.50;98.00;;;;;;5031125;28;20467;-68
2022/05/22 03:51:31;;;;;;;2.70;1.80;;;11.60;98.00;;;;;;5013711;28;20558;-68
2022/05/22 03:53:58;;;;;;;6.03;1.90;;;11.40;98.00;;;;;;5031093;28;20464;-68
2022/05/22 03:56:27;;;;;;;2.90;1.63;;;11.20;98.00;;;;;;5031113;28;20461;-67
2022/05/22 03:58:54;;;;;;;1.40;1.30;;;11.00;98.00;;;;;;5031144;28;20466;-67
2022/05/22 04:01:21;;;;;;;1.50;1.27;;;10.90;98.00;;;;;;5031054;28;20464;-68
2022/05/22 04:03:48;;;;;;;1.40;1.23;;;10.90;98.00;;;;;;5031203;28;20455;-67
2022/05/22 04:06:17;;;;;;;1.60;1.27;;;10.90;98.00;;;;;;5030901;28;20487;-67
2022/05/22 04:08:44;;;;;;;2.13;1.27;;;10.90;98.00;;;;;;5013738;28;20471;-67
2022/05/22 04:11:13;;;;;;;1.67;1.27;;;11.00;98.00;;;;;;5031049;28;21112;-68
2022/05/22 04:13:42;;;;;;;1.93;1.33;;;10.90;98.00;;;;;;5030903;28;20465;-67
2022/05/22 04:16:09;;;;;;;1.43;1.23;;;10.90;98.00;;;;;;5031214;28;20460;-68
2022/05/22 04:18:36;;;;;;;1.60;1.40;;;10.90;98.00;;;;;;5031062;28;20802;-67
2022/05/22 04:21:05;;;;;;;2.07;1.30;;;10.80;98.00;;;;;;5030927;28;20467;-67
2022/05/22 04:26:17;;;;;;;8.93;1.40;;;11.00;98.00;;;;;;5030901;28;20534;-67
2022/05/22 04:28:45;;;;;;;1.30;1.20;;;11.20;98.00;;;;;;5030855;28;20499;-67
2022/05/22 04:31:12;;;;;;;1.73;1.10;;;11.30;98.00;;;;;;5030817;28;20496;-67
2022/05/22 04:33:39;;;;;;;1.83;1.40;;;11.40;98.00;;;;;;5030619;28;20483;-68
2022/05/22 04:36:06;;;;;;;1.50;1.30;;;11.70;98.00;;;;;;5030756;28;20456;-67
2022/05/22 04:38:33;;;;;;;1.97;1.70;;;11.70;98.00;;;;;;5030470;28;20459;-68
2022/05/22 04:41:03;;;;;;;2.27;1.63;;;11.70;98.00;;;;;;5030821;28;20468;-67
2022/05/22 04:43:32;;;;;;;1.47;1.20;;;11.80;98.00;;;;;;5030586;28;20453;-68
2022/05/22 04:46:01;;;;;;;1.50;1.40;;;11.70;98.00;;;;;;5030536;28;20481;-67
2022/05/22 04:48:30;;;;;;;1.70;1.43;;;11.50;98.00;;;;;;5030565;28;20695;-67
2022/05/22 04:50:57;;;;;;;1.50;1.30;;;11.40;98.00;;;;;;5030584;28;20971;-67
2022/05/22 04:53:25;;;;;;;2.20;1.40;;;11.40;98.00;;;;;;5030407;28;20469;-68
2022/05/22 04:55:53;;;;;;;1.40;1.30;;;11.40;98.00;;;;;;5030806;28;20996;-67
2022/05/22 04:58:20;;;;;;;1.50;1.30;;;11.40;98.00;;;;;;5013910;28;20453;-67
2022/05/22 05:00:49;;;;;;;1.83;1.53;;;11.60;98.00;;;;;;5034052;28;20446;-67
2022/05/22 05:03:18;;;;;;;2.83;1.63;;;11.70;98.00;;;;;;5032486;28;20466;-67
2022/05/22 05:05:54;;;;;;;1.30;1.20;;;11.90;98.00;;;;;;5033950;28;20488;-67
2022/05/22 05:08:21;;;;;;;1.70;1.43;;;12.10;98.00;;;;;;5033988;28;20539;-67
2022/05/22 05:10:48;;;;;;;1.80;1.37;;;12.20;98.00;;;;;;5034050;28;20469;-67
2022/05/22 05:13:15;;;;;;;1.90;1.20;;;12.10;98.00;;;;;;5033802;28;20537;-67
2022/05/22 05:15:42;;;;;;;1.97;1.80;;;12.10;98.00;;;;;;5033559;28;20456;-68
2022/05/22 05:18:10;;;;;;;1.47;1.40;;;12.10;98.00;;;;;;5034012;28;20461;-67
2022/05/22 05:20:39;;;;;;;1.40;1.20;;;12.10;98.00;;;;;;5034030;28;20874;-67
2022/05/22 05:23:09;;;;;;;1.93;1.43;;;12.00;98.00;;;;;;5033756;28;20517;-67
2022/05/22 05:25:36;;;;;;;2.43;1.50;;;12.10;98.00;;;;;;5033719;28;20481;-67
2022/05/22 05:28:03;;;;;;;2.27;1.63;;;12.10;98.00;;;;;;5033680;28;20466;-67
2022/05/22 05:30:30;;;;;;;1.53;1.27;;;12.10;98.00;;;;;;5033612;28;20835;-67
2022/05/22 05:32:58;;;;;;;2.13;1.30;;;12.20;98.00;;;;;;5033934;28;20461;-68
2022/05/22 05:40:22;;;;;;;2.13;1.67;;;12.70;98.00;;;;;;5032512;28;20879;-66
2022/05/22 05:42:49;;;;;;;1.90;1.47;;;12.70;98.00;;;;;;5033632;28;20455;-66
2022/05/22 05:45:17;;;;;;;3.17;1.77;;;12.80;98.00;;;;;;5033051;28;20464;-66
2022/05/22 05:47:48;;;;;;;3.13;1.93;;;13.10;98.00;;;;;;5033148;28;20539;-66
2022/05/22 05:50:20;;;;;;;1.40;1.23;;;13.10;98.00;;;;;;5033429;28;20848;-66
2022/05/22 05:52:47;;;;;;;2.37;1.50;;;13.00;98.00;;;;;;5033136;28;20514;-66
2022/05/22 05:55:15;;;;;;;1.73;1.53;;;13.10;98.00;;;;;;5033241;28;20455;-65
2022/05/22 05:57:44;;;;;;;3.50;1.97;;;13.20;98.00;;;;;;5032888;28;21062;-66
2022/05/22 06:00:14;;;;;;;2.60;1.50;;;13.40;98.00;;;;;;5033060;28;20820;-66
2022/05/22 06:02:41;;;;;;;2.30;2.03;;;13.60;98.00;;;;;;5033012;28;20473;-66
2022/05/22 06:05:09;;;;;;;1.40;1.30;;;13.80;98.00;;;;;;5033025;28;20462;-66
2022/05/22 06:07:36;;;;;;;2.03;1.60;;;14.00;98.00;;;;;;5032810;28;20494;-66
2022/05/22 06:10:05;;;;;;;2.83;1.73;;;14.00;98.00;;;;;;5032597;28;20523;-66
2022/05/22 06:12:32;;;;;;;1.87;1.60;;;14.10;98.00;;;;;;5032748;28;20458;-66
2022/05/22 06:15:01;;;;;;;1.73;1.33;;;14.20;98.00;;;;;;5033011;28;20457;-66
2022/05/22 06:17:33;;;;;;;1.70;1.40;;;14.40;98.00;;;;;;5033088;28;20457;-66
2022/05/22 06:20:00;;;;;;;1.83;1.70;;;14.40;98.00;;;;;;5033176;28;20468;-66
2022/05/22 06:22:31;;;;;;;2.33;1.60;;;14.40;98.00;;;;;;5032565;28;20544;-65
2022/05/22 06:24:58;;;;;;;1.70;1.30;;;14.40;98.00;;;;;;5030652;28;20955;-66
2022/05/22 06:27:26;;;;;;;3.73;2.00;;;14.50;98.00;;;;;;5032353;28;20743;-65
2022/05/22 06:29:53;;;;;;;2.23;2.10;;;14.70;98.00;;;;;;5032332;28;20872;-66
2022/05/22 06:32:22;;;;;;;1.90;1.60;;;14.80;98.00;;;;;;5032479;28;20833;-65
2022/05/22 06:34:50;;;;;;;2.50;1.50;;;14.90;98.00;;;;;;5032444;28;20458;-66
2022/05/22 06:37:19;;;;;;;2.13;1.50;;;14.90;98.00;;;;;;5032225;28;20482;-66
2022/05/22 06:39:50;;;;;;;1.37;1.37;;;15.00;98.00;;;;;;5032191;28;20466;-65
2022/05/22 06:42:23;;;;;;;1.77;1.47;;;15.10;98.00;;;;;;5032327;28;20563;-65
2022/05/22 06:44:58;;;;;;;2.13;1.60;;;15.20;98.00;;;;;;5032065;28;20469;-62
2022/05/22 06:47:28;;;;;;;8.07;2.50;;;15.30;98.00;;;;;;5031904;28;20482;-61
2022/05/22 06:49:56;;;;;;;1.80;1.80;;;15.50;98.00;;;;;;5032045;28;20458;-62
2022/05/22 06:52:23;;;;;;;2.73;2.00;;;15.70;98.00;;;;;;5031901;28;20945;-62
2022/05/22 06:54:50;;;;;;;1.60;1.53;;;15.70;98.00;;;;;;5032368;28;20465;-62
2022/05/22 06:57:20;;;;;;;1.97;1.60;;;15.80;98.00;;;;;;5032233;28;20469;-63
2022/05/22 06:59:48;;;;;;;1.93;1.73;;;15.70;98.00;;;;;;5031962;28;20462;-62
2022/05/22 07:02:16;;;;;;;4.17;2.33;;;15.90;98.00;;;;;;5031922;28;20451;-62
2022/05/22 07:04:45;;;;;;;1.70;1.57;;;16.10;98.00;;;;;;5032039;28;20465;-62
2022/05/22 07:07:12;;;;;;;1.97;1.60;;;16.40;98.00;;;;;;5031770;28;20484;-62
2022/05/22 07:09:39;;;;;;;3.20;1.70;;;16.50;98.00;;;;;;5031768;28;20466;-62
2022/05/22 07:12:09;;;;;;;2.13;1.70;;;16.60;98.00;;;;;;5031752;28;20465;-63
2022/05/22 07:14:38;;;;;;;1.60;1.40;;;16.70;98.00;;;;;;5032140;28;20516;-62
2022/05/22 07:17:07;;;;;;;1.77;1.60;;;16.80;98.00;;;;;;5032612;28;21010;-62
2022/05/22 07:19:37;;;;;;;1.77;1.50;;;16.90;98.00;;;;;;5031682;28;20469;-62
2022/05/22 07:22:06;;;;;;;1.77;1.67;;;17.00;98.00;;;;;;5031067;28;20878;-62
2022/05/22 07:24:34;;;;;;;1.73;1.60;;;17.00;98.00;;;;;;5031351;28;20542;-62
2022/05/22 07:27:01;;;;;;;2.33;1.83;;;17.10;98.00;;;;;;5031400;28;20493;-62
2022/05/22 07:29:29;;;;;;;1.90;1.37;;;17.00;98.00;;;;;;5031283;28;20455;-62
2022/05/22 07:31:56;;;;;;;1.83;1.57;;;17.10;98.00;;;;;;5031428;28;20946;-62
2022/05/22 07:34:25;;;;;;;2.30;1.70;;;17.30;98.00;;;;;;5031205;28;20517;-62
2022/05/22 07:36:55;;;;;;;1.87;1.50;;;17.60;98.00;;;;;;5031325;28;20459;-62
2022/05/22 07:39:23;;;;;;;2.70;1.90;;;17.70;98.00;;;;;;5030974;28;20467;-62
2022/05/22 07:41:51;;;;;;;1.50;1.47;;;17.90;98.00;;;;;;5031078;28;20948;-62
2022/05/22 07:44:18;;;;;;;8.23;2.20;;;17.90;98.00;;;;;;5031069;28;20944;-62
2022/05/22 07:46:46;;;;;;;2.17;1.90;;;17.90;98.00;;;;;;5028182;28;20521;-62
2022/05/22 07:50:16;;;;;;;1.60;1.43;;;18.00;98.00;;;;;;5026632;28;20451;-63
2022/05/22 07:52:05;;;;;;;2.20;1.70;;;18.10;98.00;;;;;;5026967;28;20497;-62
2022/05/22 07:54:35;;;;;;;1.97;1.63;;;18.30;98.00;;;;;;5028363;28;20945;-63
2022/05/22 07:57:02;;;;;;;3.07;1.63;;;18.30;98.00;;;;;;5028564;28;20465;-62
2022/05/22 07:59:30;;;;;;;2.53;1.63;;;18.40;98.00;;;;;;5010728;28;20867;-63
2022/05/22 08:01:58;;;;;;;2.10;1.80;;;18.50;98.00;;;;;;5028635;28;21035;-63
2022/05/22 08:04:25;;;;;;;1.90;1.60;;;18.70;98.00;;;;;;5028256;28;20462;-63
2022/05/22 08:06:52;;;;;;;2.00;1.87;;;18.90;98.00;;;;;;5028492;28;20494;-63
2022/05/22 08:09:19;;;;;;;1.97;1.40;;;19.00;98.00;;;;;;5028622;28;20553;-63
2022/05/22 08:11:47;;;;;;;1.57;1.53;;;19.10;98.00;;;;;;5028394;28;20455;-63
2022/05/22 08:14:15;;;;;;;1.40;1.30;;;19.20;97.80;;;;;;5028690;28;20451;-63
2022/05/22 08:16:43;;;;;;;1.97;1.60;;;19.20;98.00;;;;;;5028578;28;20525;-63
2022/05/22 08:19:11;;;;;;;1.53;1.47;;;19.30;96.50;;;;;;5028548;28;20545;-63
2022/05/22 08:21:39;;;;;;;1.40;1.40;;;19.30;97.20;;;;;;5028121;28;20490;-63
2022/05/22 08:24:06;;;;;;;1.67;1.43;;;19.40;96.70;;;;;;5010881;28;20495;-63
2022/05/22 08:26:33;;;;;;;2.30;1.50;;;19.60;97.30;;;;;;5028341;28;20478;-63
2022/05/22 08:29:02;;;;;;;1.73;1.50;;;19.90;95.90;;;;;;5028248;28;20831;-63
2022/05/22 08:31:29;;;;;;;2.60;1.77;;;20.10;96.10;;;;;;5028531;28;20469;-63
2022/05/22 08:33:56;;;;;;;1.53;1.47;;;20.20;96.10;;;;;;5030103;28;20832;-63
2022/05/22 08:36:23;;;;;;;1.53;1.50;;;20.40;95.00;;;;;;5031956;28;20513;-63
2022/05/22 08:38:50;;;;;;;1.63;1.40;;;20.60;93.20;;;;;;5031856;28;20466;-63
2022/05/22 08:41:22;;;;;;;1.77;1.40;;;20.70;93.00;;;;;;5032208;28;20457;-63
2022/05/22 08:43:56;;;;;;;3.53;1.67;;;20.80;93.90;;;;;;5031821;28;20462;-62
2022/05/22 08:46:33;;;;;;;2.37;1.70;;;20.90;92.10;;;;;;5030726;28;20549;-63
2022/05/22 08:49:03;;;;;;;1.70;1.60;;;21.10;91.60;;;;;;5031983;28;20516;-63
2022/05/22 08:51:39;;;;;;;1.70;1.30;;;21.10;90.60;;;;;;5030430;28;20466;-63
2022/05/22 08:54:14;;;;;;;2.90;1.43;;;21.20;90.80;;;;;;5031971;28;20460;-63
2022/05/22 08:59:30;;;;;;;1.97;1.27;;;21.50;90.20;;;;;;5031625;28;20469;-63
2022/05/22 09:02:08;;;;;;;2.00;1.30;;;21.60;88.90;;;;;;5031663;28;20529;-63
2022/05/22 09:04:39;;;;;;;1.80;1.40;;;21.70;85.70;;;;;;5031297;28;21162;-63
2022/05/22 09:07:20;;;;;;;1.50;1.40;;;21.80;86.60;;;;;;5031299;28;21023;-63
2022/05/22 09:09:52;;;;;;;1.30;1.30;;;22.00;89.30;;;;;;5031249;28;20462;-63
2022/05/22 09:12:42;;;;;;;1.90;1.47;;;22.20;86.90;;;;;;5031607;28;20488;-63
2022/05/22 09:15:15;;;;;;;1.90;1.57;;;22.30;85.70;;;;;;5031858;28;20458;-63
2022/05/22 09:17:50;;;;;;;1.93;1.40;;;22.40;86.20;;;;;;5031373;28;20466;-63
2022/05/22 09:20:21;;;;;;;1.80;1.50;;;22.40;84.60;;;;;;5031510;28;20458;-62
2022/05/22 09:23:00;;;;;;;1.60;1.50;;;22.50;87.80;;;;;;5031585;28;20466;-62
2022/05/22 09:25:36;;;;;;;2.13;1.70;;;22.70;84.50;;;;;;5031244;28;20554;-62
2022/05/22 09:28:13;;;;;;;1.50;1.50;;;22.80;85.10;;;;;;5031200;28;20531;-62
2022/05/22 09:30:50;;;;;;;1.40;1.37;;;22.90;86.40;;;;;;5010004;28;20523;-62
2022/05/22 09:33:29;;;;;;;2.00;1.60;;;23.00;85.00;;;;;;5029498;28;20466;-63
2022/05/22 09:36:09;;;;;;;1.40;1.30;;;23.00;83.30;;;;;;5013347;28;20952;-63
2022/05/22 09:39:02;;;;;;;1.50;1.33;;;23.10;85.20;;;;;;5030533;28;20459;-63
2022/05/22 09:41:44;;;;;;;2.13;1.40;;;23.20;82.90;;;;;;5025519;28;20454;-62
2022/05/22 09:44:46;;;;;;;1.53;1.50;;;23.10;84.10;;;;;;5030832;28;20469;-62
2022/05/22 09:47:45;;;;;;;1.90;1.50;;;23.20;84.70;;;;;;5029218;28;20497;-64
2022/05/22 09:50:23;;;;;;;2.10;1.70;;;23.40;85.00;;;;;;4992305;28;20458;-61
2022/05/22 09:52:58;;;;;;;1.90;1.33;;;23.40;86.50;;;;;;5030575;28;20447;-62
2022/05/22 09:55:43;;;;;;;1.50;1.20;;;23.60;85.10;;;;;;5030677;28;20485;-62
2022/05/22 09:58:52;;;;;;;2.00;1.50;;;23.80;85.30;;;;;;5030573;28;20463;-62
2022/05/22 10:01:25;;;;;;;1.60;1.50;;;23.90;83.10;;;;;;4992563;28;20521;-63
2022/05/22 10:04:05;;;;;;;1.93;1.80;;;23.80;82.50;;;;;;5030645;28;20553;-61
2022/05/22 10:06:49;;;;;;;2.30;1.60;;;24.00;85.00;;;;;;5030176;28;20465;-62
2022/05/22 10:09:26;;;;;;;3.10;2.00;;;24.10;83.50;;;;;;5030088;28;20560;-63
2022/05/22 10:12:06;;;;;;;1.70;1.60;;;24.10;81.30;;;;;;5030641;28;20462;-63
2022/05/22 10:14:49;;;;;;;1.70;1.40;;;24.10;82.20;;;;;;5030074;28;20516;-62
2022/05/22 10:17:31;;;;;;;2.10;1.70;;;24.20;83.40;;;;;;5030495;28;20836;-62
2022/05/22 10:20:06;;;;;;;1.93;1.60;;;24.30;81.20;;;;;;5030329;28;20463;-62
2022/05/22 10:22:48;;;;;;;2.20;1.67;;;24.40;81.80;;;;;;5030830;28;20850;-62
2022/05/22 10:25:30;;;;;;;2.03;1.50;;;24.50;82.40;;;;;;5030493;28;20821;-63
2022/05/22 10:28:00;;;;;;;1.40;1.40;;;24.60;80.70;;;;;;5014079;28;20502;-63
2022/05/22 10:30:31;;;;;;;1.97;1.70;;;24.80;83.60;;;;;;5030186;28;20459;-64
2022/05/22 10:33:04;;;;;;;1.60;1.30;;;25.00;79.10;;;;;;5030428;28;20801;-63
2022/05/22 10:35:41;;;;;;;2.10;1.50;;;25.10;81.10;;;;;;5030264;28;20870;-63
2022/05/22 10:38:13;;;;;;;2.10;1.60;;;25.20;78.70;;;;;;5028917;28;20474;-62
2022/05/22 10:43:35;;;;;;;2.03;1.60;;;25.50;81.40;;;;;;5029527;28;20826;-63
2022/05/22 10:46:05;;;;;;;1.77;1.53;;;25.60;77.70;;;;;;5030057;28;20455;-62
2022/05/22 10:48:33;;;;;;;1.73;1.50;;;25.50;77.20;;;;;;5028516;28;20486;-62
2022/05/22 10:51:06;;;;;;;1.93;1.60;;;25.60;78.30;;;;;;5027815;28;20458;-62
2022/05/22 10:53:37;;;;;;;1.67;1.50;;;25.80;76.90;;;;;;5029704;28;20451;-62
2022/05/22 10:56:07;;;;;;;2.07;1.60;;;25.80;74.30;;;;;;5030082;28;20486;-63
2022/05/22 10:58:36;;;;;;;1.70;1.50;;;25.80;70.10;;;;;;5030924;28;20463;-63
2022/05/22 11:01:06;;;;;;;1.40;1.40;;;25.90;72.80;;;;;;5029652;28;20466;-62
2022/05/22 11:03:35;;;;;;;1.50;1.33;;;26.10;74.20;;;;;;5029240;28;20470;-63
2022/05/22 11:06:15;;;;;;;1.53;1.40;;;26.30;74.50;;;;;;5029420;28;20455;-63
2022/05/22 11:08:50;;;;;;;2.43;1.53;;;26.50;73.40;;;;;;5029122;28;20505;-63
2022/05/22 11:11:19;;;;;;;1.70;1.40;;;26.70;75.10;;;;;;5021186;28;20469;-63
2022/05/22 11:13:54;;;;;;;1.90;1.43;;;26.90;75.80;;;;;;5021374;28;20984;-63
2022/05/22 11:16:28;;;;;;;1.80;1.70;;;27.10;71.40;;;;;;5021474;28;20589;-63
2022/05/22 11:19:07;;;;;;;2.13;1.60;;;26.90;73.10;;;;;;5029212;28;20462;-63
2022/05/22 11:21:40;;;;;;;1.83;1.47;;;26.90;73.30;;;;;;5029331;28;20883;-63
2022/05/22 11:24:22;;;;;;;1.60;1.40;;;27.10;74.50;;;;;;5029277;28;20466;-63
2022/05/22 11:26:59;;;;;;;1.70;1.50;;;27.30;71.60;;;;;;5029177;28;20741;-64
2022/05/22 11:29:55;;;;;;;1.77;1.63;;;27.40;71.50;;;;;;5029120;28;20537;-63
2022/05/22 11:32:31;;;;;;;2.27;1.40;;;27.60;70.20;;;;;;5021472;28;20459;-63
2022/05/22 11:35:35;;;;;;;2.07;1.70;;;27.80;71.20;;;;;;5028735;28;20462;-64
2022/05/22 11:38:31;;;;;;;1.73;1.50;;;28.00;72.00;;;;;;4947920;29;20454;-63
2022/05/22 11:41:09;;;;;;;1.83;1.50;;;27.80;70.70;;;;;;5025248;28;20458;-62
2022/05/22 11:44:03;;;;;;;2.37;1.60;;;27.30;71.40;;;;;;5021589;28;20964;-63
2022/05/22 11:46:43;;;;;;;3.20;1.80;;;27.10;72.30;;;;;;5026399;28;20528;-63
2022/05/22 11:49:24;;;;;;;2.07;1.50;;;27.10;72.10;;;;;;5033827;28;20493;-63
2022/05/22 11:55:17;;;;;;;2.43;1.60;;;27.40;69.80;;;;;;5024959;28;20505;-63
2022/05/22 11:58:00;;;;;;;2.27;1.67;;;27.70;70.80;;;;;;5028893;28;20473;-64
2022/05/22 12:00:35;;;;;;;2.20;1.70;;;28.00;70.60;;;;;;5028489;28;20565;-64
2022/05/22 12:03:46;;;;;;;2.30;1.63;;;28.30;69.60;;;;;;5028278;28;20465;-63
2022/05/22 12:06:21;;;;;;;2.30;1.67;;;28.80;70.60;;;;;;5024370;28;20455;-63
2022/05/22 12:09:03;;;;;;;2.10;1.80;;;29.10;69.20;;;;;;5030132;28;20497;-63
2022/05/22 12:11:35;;;;;;;1.50;1.47;;;29.00;66.20;;;;;;5032647;28;20941;-63
2022/05/22 12:14:16;;;;;;;2.80;1.87;;;28.90;67.80;;;;;;5032494;28;20463;-63
2022/05/22 12:16:50;;;;;;;1.67;1.50;;;29.20;67.10;;;;;;5032728;28;20573;-64
2022/05/22 12:19:27;;;;;;;3.13;2.20;;;29.40;68.00;;;;;;5024411;28;20462;-64
2022/05/22 12:22:03;;;;;;;1.70;1.57;;;29.30;68.40;;;;;;5032349;28;20904;-64
2022/05/22 12:24:41;;;;;;;2.53;1.80;;;29.40;72.20;;;;;;5015826;28;20968;-63
2022/05/22 12:27:19;;;;;;;2.87;1.60;;;29.70;69.50;;;;;;5032290;28;21019;-63
2022/05/22 12:29:56;;;;;;;3.50;1.90;;;29.80;67.70;;;;;;5032195;28;20497;-63
2022/05/22 12:32:26;;;;;;;1.43;1.40;;;30.00;68.70;;;;;;5032332;28;20457;-64
2022/05/22 12:34:56;;;;;;;2.17;1.90;;;30.00;67.80;;;;;;5032082;28;20458;-63
2022/05/22 12:37:33;;;;;;;2.60;1.83;;;30.00;70.30;;;;;;5034785;28;20903;-64
2022/05/22 12:40:11;;;;;;;1.77;1.40;;;30.00;67.60;;;;;;5034962;28;20481;-63
2022/05/22 12:42:43;;;;;;;2.67;1.70;;;29.80;68.40;;;;;;5034799;28;20518;-64
2022/05/22 12:45:12;;;;;;;2.00;1.60;;;29.80;68.30;;;;;;5035007;28;20465;-64
2022/05/22 12:47:45;;;;;;;1.30;1.30;;;29.80;68.10;;;;;;5034854;28;20520;-63
2022/05/22 12:50:13;;;;;;;2.30;1.60;;;29.80;69.90;;;;;;5034989;28;20451;-63
2022/05/22 12:52:41;;;;;;;2.13;1.73;;;29.70;67.00;;;;;;5034933;28;20458;-64
2022/05/22 12:55:21;;;;;;;2.60;1.87;;;29.70;64.80;;;;;;5035053;28;20490;-63
2022/05/22 12:57:56;;;;;;;2.17;1.57;;;29.60;62.10;;;;;;5034922;28;20500;-63
2022/05/22 13:00:36;;;;;;;2.50;1.63;;;29.90;62.50;;;;;;5034934;28;20457;-64
2022/05/22 13:03:21;;;;;;;2.10;1.70;;;30.30;63.30;;;;;;5034945;28;20462;-63
2022/05/22 13:05:58;;;;;;;2.40;1.63;;;30.50;64.20;;;;;;5034941;28;20503;-63
2022/05/22 13:08:30;;;;;;;2.13;1.70;;;30.50;63.70;;;;;;5034852;28;20486;-64
2022/05/22 13:11:00;;;;;;;2.80;1.50;;;30.30;64.90;;;;;;5034908;28;20490;-63
2022/05/22 13:13:31;;;;;;;1.43;1.40;;;30.00;65.90;;;;;;5034650;28;20545;-64
2022/05/22 13:16:04;;;;;;;1.93;1.53;;;30.10;66.50;;;;;;5034795;28;20454;-63
2022/05/22 13:18:33;;;;;;;1.70;1.53;;;29.60;64.20;;;;;;5034656;28;20455;-64
2022/05/22 13:21:03;;;;;;;2.03;1.53;;;29.70;64.80;;;;;;5033245;28;20455;-63
2022/05/22 13:23:36;;;;;;;1.67;1.47;;;30.00;65.00;;;;;;5034764;28;20455;-63
2022/05/22 13:26:25;;;;;;;1.90;1.57;;;30.30;65.50;;;;;;5034519;28;20479;-63
2022/05/22 13:28:58;;;;;;;1.80;1.60;;;30.40;62.50;;;;;;5034484;28;20486;-63
2022/05/22 13:31:44;;;;;;;2.17;1.63;;;30.30;64.40;;;;;;5034285;28;20462;-63